sensor_id;sensor_type;location;lat;lon;timestamp;temperature;humidity
66708;DHT22;53622;0.000;0.000;2023-04-29T00:00:12;23.40;58.40
66708;DHT22;53622;0.000;0.000;2023-04-29T00:02:41;23.40;58.30
66708;DHT22;53622;0.000;0.000;2023-04-29T00:05:10;23.40;58.40
66708;DHT22;53622;0.000;0.000;2023-04-29T00:07:40;23.40;58.30
66708;DHT22;53622;0.000;0.000;2023-04-29T00:10:10;23.40;58.30
66708;DHT22;53622;0.000;0.000;2023-04-29T00:12:41;23.40;58.20
66708;DHT22;53622;0.000;0.000;2023-04-29T00:15:12;23.40;58.30
66708;DHT22;53622;0.000;0.000;2023-04-29T00:17:41;23.40;58.30
66708;DHT22;53622;0.000;0.000;2023-04-29T00:20:12;23.40;58.20
66708;DHT22;53622;0.000;0.000;2023-04-29T00:22:42;23.40;58.20
66708;DHT22;53622;0.000;0.000;2023-04-29T00:25:11;23.40;58.30
66708;DHT22;53622;0.000;0.000;2023-04-29T00:27:41;23.30;58.20
66708;DHT22;53622;0.000;0.000;2023-04-29T00:30:12;23.40;58.30
66708;DHT22;53622;0.000;0.000;2023-04-29T00:32:41;23.30;58.20
66708;DHT22;53622;0.000;0.000;2023-04-29T00:35:11;23.40;58.30
66708;DHT22;53622;0.000;0.000;2023-04-29T00:37:40;23.30;58.20
66708;DHT22;53622;0.000;0.000;2023-04-29T00:40:10;23.40;58.20
66708;DHT22;53622;0.000;0.000;2023-04-29T00:42:42;23.30;58.20
66708;DHT22;53622;0.000;0.000;2023-04-29T00:45:13;23.30;58.20
66708;DHT22;53622;0.000;0.000;2023-04-29T00:47:42;23.30;58.10
66708;DHT22;53622;0.000;0.000;2023-04-29T00:50:11;23.30;58.20
66708;DHT22;53622;0.000;0.000;2023-04-29T00:52:42;23.30;58.10
66708;DHT22;53622;0.000;0.000;2023-04-29T00:55:12;23.40;58.20
66708;DHT22;53622;0.000;0.000;2023-04-29T00:57:42;23.30;58.20
66708;DHT22;53622;0.000;0.000;2023-04-29T01:00:13;23.30;58.10
66708;DHT22;53622;0.000;0.000;2023-04-29T01:02:43;23.30;58.20
66708;DHT22;53622;0.000;0.000;2023-04-29T01:05:13;23.30;58.20
66708;DHT22;53622;0.000;0.000;2023-04-29T01:07:55;23.30;58.20
66708;DHT22;53622;0.000;0.000;2023-04-29T01:10:28;23.30;58.20
66708;DHT22;53622;0.000;0.000;2023-04-29T01:13:05;23.30;58.20
66708;DHT22;53622;0.000;0.000;2023-04-29T01:15:46;23.30;58.20
66708;DHT22;53622;0.000;0.000;2023-04-29T01:18:21;23.30;58.20
66708;DHT22;53622;0.000;0.000;2023-04-29T01:20:52;23.30;58.20
66708;DHT22;53622;0.000;0.000;2023-04-29T01:23:26;23.30;58.20
66708;DHT22;53622;0.000;0.000;2023-04-29T01:25:57;23.30;58.20
66708;DHT22;53622;0.000;0.000;2023-04-29T01:28:47;23.30;58.20
66708;DHT22;53622;0.000;0.000;2023-04-29T01:31:24;23.30;58.20
66708;DHT22;53622;0.000;0.000;2023-04-29T01:34:04;23.30;58.10
66708;DHT22;53622;0.000;0.000;2023-04-29T01:36:45;23.30;58.20
66708;DHT22;53622;0.000;0.000;2023-04-29T01:39:29;23.20;58.10
66708;DHT22;53622;0.000;0.000;2023-04-29T01:42:17;23.20;58.20
66708;DHT22;53622;0.000;0.000;2023-04-29T01:44:50;23.30;58.20
66708;DHT22;53622;0.000;0.000;2023-04-29T01:47:22;23.20;58.10
66708;DHT22;53622;0.000;0.000;2023-04-29T01:49:53;23.20;58.10
66708;DHT22;53622;0.000;0.000;2023-04-29T01:52:23;23.20;58.20
66708;DHT22;53622;0.000;0.000;2023-04-29T01:54:57;23.20;58.10
66708;DHT22;53622;0.000;0.000;2023-04-29T01:57:35;23.20;58.10
66708;DHT22;53622;0.000;0.000;2023-04-29T02:00:22;23.20;58.10
66708;DHT22;53622;0.000;0.000;2023-04-29T02:02:52;23.20;58.10
66708;DHT22;53622;0.000;0.000;2023-04-29T02:05:39;23.20;58.10
66708;DHT22;53622;0.000;0.000;2023-04-29T02:08:09;23.20;58.10
66708;DHT22;53622;0.000;0.000;2023-04-29T02:10:52;23.20;58.00
66708;DHT22;53622;0.000;0.000;2023-04-29T02:13:30;23.20;58.00
66708;DHT22;53622;0.000;0.000;2023-04-29T02:16:06;23.20;58.10
66708;DHT22;53622;0.000;0.000;2023-04-29T02:18:37;23.20;58.10
66708;DHT22;53622;0.000;0.000;2023-04-29T02:21:08;23.20;58.00
66708;DHT22;53622;0.000;0.000;2023-04-29T02:23:37;23.20;58.00
66708;DHT22;53622;0.000;0.000;2023-04-29T02:26:08;23.20;58.10
66708;DHT22;53622;0.000;0.000;2023-04-29T02:28:37;23.20;58.10
66708;DHT22;53622;0.000;0.000;2023-04-29T02:31:06;23.20;58.00
66708;DHT22;53622;0.000;0.000;2023-04-29T02:33:36;23.20;58.00
66708;DHT22;53622;0.000;0.000;2023-04-29T02:36:05;23.20;58.00
66708;DHT22;53622;0.000;0.000;2023-04-29T02:38:34;23.20;58.00
66708;DHT22;53622;0.000;0.000;2023-04-29T02:41:03;23.20;58.00
66708;DHT22;53622;0.000;0.000;2023-04-29T02:43:34;23.20;58.00
66708;DHT22;53622;0.000;0.000;2023-04-29T02:46:03;23.20;58.00
66708;DHT22;53622;0.000;0.000;2023-04-29T02:48:33;23.20;58.20
66708;DHT22;53622;0.000;0.000;2023-04-29T02:51:03;23.20;58.20
66708;DHT22;53622;0.000;0.000;2023-04-29T02:53:33;23.20;58.00
66708;DHT22;53622;0.000;0.000;2023-04-29T02:56:02;23.20;58.00
66708;DHT22;53622;0.000;0.000;2023-04-29T02:58:33;23.20;58.00
66708;DHT22;53622;0.000;0.000;2023-04-29T03:01:03;23.20;58.10
66708;DHT22;53622;0.000;0.000;2023-04-29T03:03:32;23.20;58.20
66708;DHT22;53622;0.000;0.000;2023-04-29T03:06:11;23.20;58.10
66708;DHT22;53622;0.000;0.000;2023-04-29T03:08:40;23.20;58.10
66708;DHT22;53622;0.000;0.000;2023-04-29T03:11:10;23.10;58.10
66708;DHT22;53622;0.000;0.000;2023-04-29T03:13:40;23.10;58.20
66708;DHT22;53622;0.000;0.000;2023-04-29T03:16:10;23.10;58.20
66708;DHT22;53622;0.000;0.000;2023-04-29T03:18:40;23.10;58.10
66708;DHT22;53622;0.000;0.000;2023-04-29T03:21:10;23.10;58.10
66708;DHT22;53622;0.000;0.000;2023-04-29T03:23:39;23.10;58.10
66708;DHT22;53622;0.000;0.000;2023-04-29T03:26:11;23.10;58.20
66708;DHT22;53622;0.000;0.000;2023-04-29T03:28:42;23.10;58.20
66708;DHT22;53622;0.000;0.000;2023-04-29T03:31:11;23.10;58.20
66708;DHT22;53622;0.000;0.000;2023-04-29T03:33:43;23.10;58.20
66708;DHT22;53622;0.000;0.000;2023-04-29T03:36:13;23.10;58.10
66708;DHT22;53622;0.000;0.000;2023-04-29T03:39:11;23.10;58.10
66708;DHT22;53622;0.000;0.000;2023-04-29T03:41:42;23.10;58.00
66708;DHT22;53622;0.000;0.000;2023-04-29T03:44:13;23.10;58.10
66708;DHT22;53622;0.000;0.000;2023-04-29T03:46:42;23.10;58.00
66708;DHT22;53622;0.000;0.000;2023-04-29T03:49:12;23.10;58.00
66708;DHT22;53622;0.000;0.000;2023-04-29T03:51:43;23.10;58.00
66708;DHT22;53622;0.000;0.000;2023-04-29T03:54:15;23.10;57.90
66708;DHT22;53622;0.000;0.000;2023-04-29T03:56:44;23.10;58.00
66708;DHT22;53622;0.000;0.000;2023-04-29T03:59:15;23.10;57.90
66708;DHT22;53622;0.000;0.000;2023-04-29T04:01:44;23.10;57.90
66708;DHT22;53622;0.000;0.000;2023-04-29T04:04:14;23.10;57.80
66708;DHT22;53622;0.000;0.000;2023-04-29T04:06:46;23.10;57.80
66708;DHT22;53622;0.000;0.000;2023-04-29T04:09:21;23.10;57.60
66708;DHT22;53622;0.000;0.000;2023-04-29T04:11:50;23.10;57.70
66708;DHT22;53622;0.000;0.000;2023-04-29T04:14:21;23.10;57.70
66708;DHT22;53622;0.000;0.000;2023-04-29T04:16:50;23.10;57.80
66708;DHT22;53622;0.000;0.000;2023-04-29T04:19:20;23.00;57.70
66708;DHT22;53622;0.000;0.000;2023-04-29T04:21:49;23.10;57.80
66708;DHT22;53622;0.000;0.000;2023-04-29T04:24:18;23.10;57.80
66708;DHT22;53622;0.000;0.000;2023-04-29T04:26:47;23.10;57.80
66708;DHT22;53622;0.000;0.000;2023-04-29T04:29:33;23.00;57.70
66708;DHT22;53622;0.000;0.000;2023-04-29T04:32:17;23.10;57.60
66708;DHT22;53622;0.000;0.000;2023-04-29T04:34:47;23.10;57.70
66708;DHT22;53622;0.000;0.000;2023-04-29T04:37:16;23.10;57.70
66708;DHT22;53622;0.000;0.000;2023-04-29T04:39:50;23.00;57.60
66708;DHT22;53622;0.000;0.000;2023-04-29T04:42:21;23.00;57.60
66708;DHT22;53622;0.000;0.000;2023-04-29T04:44:53;23.00;57.60
66708;DHT22;53622;0.000;0.000;2023-04-29T04:47:48;23.00;57.60
66708;DHT22;53622;0.000;0.000;2023-04-29T04:50:22;23.00;57.60
66708;DHT22;53622;0.000;0.000;2023-04-29T04:52:53;23.00;57.70
66708;DHT22;53622;0.000;0.000;2023-04-29T04:55:39;23.00;57.60
66708;DHT22;53622;0.000;0.000;2023-04-29T04:58:09;23.00;57.60
66708;DHT22;53622;0.000;0.000;2023-04-29T05:00:43;23.00;57.60
66708;DHT22;53622;0.000;0.000;2023-04-29T05:03:13;23.00;57.60
66708;DHT22;53622;0.000;0.000;2023-04-29T05:05:43;23.00;57.50
66708;DHT22;53622;0.000;0.000;2023-04-29T05:08:12;23.00;57.50
66708;DHT22;53622;0.000;0.000;2023-04-29T05:10:45;23.00;57.60
66708;DHT22;53622;0.000;0.000;2023-04-29T05:13:14;23.00;57.50
66708;DHT22;53622;0.000;0.000;2023-04-29T05:15:45;23.00;57.60
66708;DHT22;53622;0.000;0.000;2023-04-29T05:18:20;23.00;57.60
66708;DHT22;53622;0.000;0.000;2023-04-29T05:20:51;23.00;57.60
66708;DHT22;53622;0.000;0.000;2023-04-29T05:23:20;23.00;57.50
66708;DHT22;53622;0.000;0.000;2023-04-29T05:25:50;23.00;57.50
66708;DHT22;53622;0.000;0.000;2023-04-29T05:28:20;23.00;57.50
66708;DHT22;53622;0.000;0.000;2023-04-29T05:30:52;23.00;57.40
66708;DHT22;53622;0.000;0.000;2023-04-29T05:33:22;23.00;57.40
66708;DHT22;53622;0.000;0.000;2023-04-29T05:35:51;23.00;57.30
66708;DHT22;53622;0.000;0.000;2023-04-29T05:38:20;23.00;57.40
66708;DHT22;53622;0.000;0.000;2023-04-29T05:41:05;23.00;57.40
66708;DHT22;53622;0.000;0.000;2023-04-29T05:43:53;23.00;57.40
66708;DHT22;53622;0.000;0.000;2023-04-29T05:46:24;23.00;57.40
66708;DHT22;53622;0.000;0.000;2023-04-29T05:48:53;23.00;57.40
66708;DHT22;53622;0.000;0.000;2023-04-29T05:51:22;23.00;57.40
66708;DHT22;53622;0.000;0.000;2023-04-29T05:53:52;23.00;57.30
66708;DHT22;53622;0.000;0.000;2023-04-29T05:56:22;23.00;57.40
66708;DHT22;53622;0.000;0.000;2023-04-29T05:58:51;23.00;57.40
66708;DHT22;53622;0.000;0.000;2023-04-29T06:01:21;23.00;57.40
66708;DHT22;53622;0.000;0.000;2023-04-29T06:03:52;23.00;57.50
66708;DHT22;53622;0.000;0.000;2023-04-29T06:06:37;23.00;57.70
66708;DHT22;53622;0.000;0.000;2023-04-29T06:09:18;23.00;57.80
66708;DHT22;53622;0.000;0.000;2023-04-29T06:11:56;23.00;57.80
66708;DHT22;53622;0.000;0.000;2023-04-29T06:14:26;23.00;57.70
66708;DHT22;53622;0.000;0.000;2023-04-29T06:16:55;23.00;57.70
66708;DHT22;53622;0.000;0.000;2023-04-29T06:19:26;23.00;57.80
66708;DHT22;53622;0.000;0.000;2023-04-29T06:21:55;23.00;57.90
66708;DHT22;53622;0.000;0.000;2023-04-29T06:24:25;23.00;57.80
66708;DHT22;53622;0.000;0.000;2023-04-29T06:26:56;23.00;57.90
66708;DHT22;53622;0.000;0.000;2023-04-29T06:29:26;23.00;57.90
66708;DHT22;53622;0.000;0.000;2023-04-29T06:31:55;23.00;57.80
66708;DHT22;53622;0.000;0.000;2023-04-29T06:34:26;23.00;57.80
66708;DHT22;53622;0.000;0.000;2023-04-29T06:37:22;23.00;57.90
66708;DHT22;53622;0.000;0.000;2023-04-29T06:40:17;23.00;57.90
66708;DHT22;53622;0.000;0.000;2023-04-29T06:43:11;23.00;58.00
66708;DHT22;53622;0.000;0.000;2023-04-29T06:46:12;23.00;58.00
66708;DHT22;53622;0.000;0.000;2023-04-29T06:49:01;23.00;58.20
66708;DHT22;53622;0.000;0.000;2023-04-29T06:51:33;22.90;58.20
66708;DHT22;53622;0.000;0.000;2023-04-29T06:54:03;23.00;58.30
66708;DHT22;53622;0.000;0.000;2023-04-29T06:56:33;23.00;58.30
66708;DHT22;53622;0.000;0.000;2023-04-29T06:59:02;23.00;59.00
66708;DHT22;53622;0.000;0.000;2023-04-29T07:01:34;23.00;58.30
66708;DHT22;53622;0.000;0.000;2023-04-29T07:04:04;23.00;58.40
66708;DHT22;53622;0.000;0.000;2023-04-29T07:06:35;23.00;58.60
66708;DHT22;53622;0.000;0.000;2023-04-29T07:09:04;23.00;58.80
66708;DHT22;53622;0.000;0.000;2023-04-29T07:11:33;23.00;58.80
66708;DHT22;53622;0.000;0.000;2023-04-29T07:14:02;23.10;58.70
66708;DHT22;53622;0.000;0.000;2023-04-29T07:16:32;23.10;58.50
66708;DHT22;53622;0.000;0.000;2023-04-29T07:19:02;23.20;58.40
66708;DHT22;53622;0.000;0.000;2023-04-29T07:21:31;23.20;58.80
66708;DHT22;53622;0.000;0.000;2023-04-29T07:24:02;23.20;58.80
66708;DHT22;53622;0.000;0.000;2023-04-29T07:26:31;23.20;59.10
66708;DHT22;53622;0.000;0.000;2023-04-29T07:29:00;23.20;59.00
66708;DHT22;53622;0.000;0.000;2023-04-29T07:31:30;23.20;59.00
66708;DHT22;53622;0.000;0.000;2023-04-29T07:34:03;23.20;59.10
66708;DHT22;53622;0.000;0.000;2023-04-29T07:36:32;23.30;58.90
66708;DHT22;53622;0.000;0.000;2023-04-29T07:39:03;23.30;58.80
66708;DHT22;53622;0.000;0.000;2023-04-29T07:41:33;23.30;58.60
66708;DHT22;53622;0.000;0.000;2023-04-29T07:44:02;23.30;58.60
66708;DHT22;53622;0.000;0.000;2023-04-29T07:46:31;23.30;58.70
66708;DHT22;53622;0.000;0.000;2023-04-29T07:49:01;23.30;58.60
66708;DHT22;53622;0.000;0.000;2023-04-29T07:51:30;23.30;58.50
66708;DHT22;53622;0.000;0.000;2023-04-29T07:54:00;23.30;58.50
66708;DHT22;53622;0.000;0.000;2023-04-29T07:56:32;23.40;58.60
66708;DHT22;53622;0.000;0.000;2023-04-29T07:59:02;23.30;58.60
66708;DHT22;53622;0.000;0.000;2023-04-29T08:01:31;23.30;59.20
66708;DHT22;53622;0.000;0.000;2023-04-29T08:04:01;23.30;58.60
66708;DHT22;53622;0.000;0.000;2023-04-29T08:06:34;23.30;58.50
66708;DHT22;53622;0.000;0.000;2023-04-29T08:09:03;23.30;58.50
66708;DHT22;53622;0.000;0.000;2023-04-29T08:11:34;23.30;58.80
66708;DHT22;53622;0.000;0.000;2023-04-29T08:14:04;23.30;58.90
66708;DHT22;53622;0.000;0.000;2023-04-29T08:16:33;23.30;59.00
66708;DHT22;53622;0.000;0.000;2023-04-29T08:19:03;23.30;59.00
66708;DHT22;53622;0.000;0.000;2023-04-29T08:21:32;23.30;59.00
66708;DHT22;53622;0.000;0.000;2023-04-29T08:24:02;23.30;58.90
66708;DHT22;53622;0.000;0.000;2023-04-29T08:26:33;23.30;58.90
66708;DHT22;53622;0.000;0.000;2023-04-29T08:29:03;23.40;59.00
66708;DHT22;53622;0.000;0.000;2023-04-29T08:31:32;23.40;59.00
66708;DHT22;53622;0.000;0.000;2023-04-29T08:34:01;23.40;59.00
66708;DHT22;53622;0.000;0.000;2023-04-29T08:36:30;23.30;58.90
66708;DHT22;53622;0.000;0.000;2023-04-29T08:39:00;23.30;59.00
66708;DHT22;53622;0.000;0.000;2023-04-29T08:41:30;23.30;58.90
66708;DHT22;53622;0.000;0.000;2023-04-29T08:44:01;23.40;58.90
66708;DHT22;53622;0.000;0.000;2023-04-29T08:46:31;23.40;58.80
66708;DHT22;53622;0.000;0.000;2023-04-29T08:49:02;23.40;58.90
66708;DHT22;53622;0.000;0.000;2023-04-29T08:51:32;23.40;58.90
66708;DHT22;53622;0.000;0.000;2023-04-29T08:54:02;23.40;58.90
66708;DHT22;53622;0.000;0.000;2023-04-29T08:56:31;23.40;59.00
66708;DHT22;53622;0.000;0.000;2023-04-29T08:59:03;23.40;59.00
66708;DHT22;53622;0.000;0.000;2023-04-29T09:01:35;23.40;59.10
66708;DHT22;53622;0.000;0.000;2023-04-29T09:04:11;23.30;59.00
66708;DHT22;53622;0.000;0.000;2023-04-29T09:06:44;23.40;59.00
66708;DHT22;53622;0.000;0.000;2023-04-29T09:09:13;23.30;59.20
66708;DHT22;53622;0.000;0.000;2023-04-29T09:11:46;23.40;59.10
66708;DHT22;53622;0.000;0.000;2023-04-29T09:14:18;23.30;59.00
66708;DHT22;53622;0.000;0.000;2023-04-29T09:16:47;23.30;59.30
66708;DHT22;53622;0.000;0.000;2023-04-29T09:19:32;23.30;59.20
66708;DHT22;53622;0.000;0.000;2023-04-29T09:22:02;23.40;59.30
66708;DHT22;53622;0.000;0.000;2023-04-29T09:24:31;23.40;59.20
66708;DHT22;53622;0.000;0.000;2023-04-29T09:27:00;23.40;59.10
66708;DHT22;53622;0.000;0.000;2023-04-29T09:29:32;23.40;59.00
66708;DHT22;53622;0.000;0.000;2023-04-29T09:32:18;23.40;59.00
66708;DHT22;53622;0.000;0.000;2023-04-29T09:34:48;23.40;59.00
66708;DHT22;53622;0.000;0.000;2023-04-29T09:37:25;23.40;59.10
66708;DHT22;53622;0.000;0.000;2023-04-29T09:39:55;23.40;59.00
66708;DHT22;53622;0.000;0.000;2023-04-29T09:42:25;23.40;59.00
66708;DHT22;53622;0.000;0.000;2023-04-29T09:44:55;23.40;59.60
66708;DHT22;53622;0.000;0.000;2023-04-29T09:47:29;23.30;58.90
66708;DHT22;53622;0.000;0.000;2023-04-29T09:50:10;23.30;58.90
66708;DHT22;53622;0.000;0.000;2023-04-29T09:52:42;23.40;58.90
66708;DHT22;53622;0.000;0.000;2023-04-29T09:55:11;23.30;58.80
66708;DHT22;53622;0.000;0.000;2023-04-29T09:57:42;23.30;58.80
66708;DHT22;53622;0.000;0.000;2023-04-29T10:00:14;23.40;58.80
66708;DHT22;53622;0.000;0.000;2023-04-29T10:02:45;23.30;58.80
66708;DHT22;53622;0.000;0.000;2023-04-29T10:05:15;23.40;58.80
66708;DHT22;53622;0.000;0.000;2023-04-29T10:07:46;23.40;58.80
66708;DHT22;53622;0.000;0.000;2023-04-29T10:10:16;23.40;58.70
66708;DHT22;53622;0.000;0.000;2023-04-29T10:12:47;23.40;58.70
66708;DHT22;53622;0.000;0.000;2023-04-29T10:15:22;23.40;58.70
66708;DHT22;53622;0.000;0.000;2023-04-29T10:17:57;23.40;58.70
66708;DHT22;53622;0.000;0.000;2023-04-29T10:20:28;23.40;58.60
66708;DHT22;53622;0.000;0.000;2023-04-29T10:22:59;23.30;58.60
66708;DHT22;53622;0.000;0.000;2023-04-29T10:25:28;23.30;58.80
66708;DHT22;53622;0.000;0.000;2023-04-29T10:27:59;23.30;59.30
66708;DHT22;53622;0.000;0.000;2023-04-29T10:30:33;23.30;59.60
66708;DHT22;53622;0.000;0.000;2023-04-29T10:33:04;23.30;60.50
66708;DHT22;53622;0.000;0.000;2023-04-29T10:35:35;23.30;60.70
66708;DHT22;53622;0.000;0.000;2023-04-29T10:38:09;23.30;60.90
66708;DHT22;53622;0.000;0.000;2023-04-29T10:40:41;23.30;61.30
66708;DHT22;53622;0.000;0.000;2023-04-29T10:43:14;23.30;61.60
66708;DHT22;53622;0.000;0.000;2023-04-29T10:45:45;23.30;61.40
66708;DHT22;53622;0.000;0.000;2023-04-29T10:48:15;23.30;61.40
66708;DHT22;53622;0.000;0.000;2023-04-29T10:51:03;23.30;61.50
66708;DHT22;53622;0.000;0.000;2023-04-29T10:53:32;23.30;61.60
66708;DHT22;53622;0.000;0.000;2023-04-29T10:56:08;23.20;62.40
66708;DHT22;53622;0.000;0.000;2023-04-29T10:58:41;23.20;62.50
66708;DHT22;53622;0.000;0.000;2023-04-29T11:01:13;23.20;62.10
66708;DHT22;53622;0.000;0.000;2023-04-29T11:03:48;23.20;61.90
66708;DHT22;53622;0.000;0.000;2023-04-29T11:06:23;23.20;61.90
66708;DHT22;53622;0.000;0.000;2023-04-29T11:08:59;23.20;61.80
66708;DHT22;53622;0.000;0.000;2023-04-29T11:11:56;23.20;62.00
66708;DHT22;53622;0.000;0.000;2023-04-29T11:14:33;23.20;62.10
66708;DHT22;53622;0.000;0.000;2023-04-29T11:17:10;23.20;62.20
66708;DHT22;53622;0.000;0.000;2023-04-29T11:19:42;23.20;62.60
66708;DHT22;53622;0.000;0.000;2023-04-29T11:22:24;23.20;62.60
66708;DHT22;53622;0.000;0.000;2023-04-29T11:24:55;23.30;62.80
66708;DHT22;53622;0.000;0.000;2023-04-29T11:27:30;23.20;63.00
66708;DHT22;53622;0.000;0.000;2023-04-29T11:30:00;23.30;63.30
66708;DHT22;53622;0.000;0.000;2023-04-29T11:32:35;23.30;64.40
66708;DHT22;53622;0.000;0.000;2023-04-29T11:35:09;23.30;64.20
66708;DHT22;53622;0.000;0.000;2023-04-29T11:37:39;23.40;64.00
66708;DHT22;53622;0.000;0.000;2023-04-29T11:40:10;23.30;65.60
66708;DHT22;53622;0.000;0.000;2023-04-29T11:42:41;23.40;65.70
66708;DHT22;53622;0.000;0.000;2023-04-29T11:45:12;23.50;66.80
66708;DHT22;53622;0.000;0.000;2023-04-29T11:47:45;23.50;68.10
66708;DHT22;53622;0.000;0.000;2023-04-29T11:50:16;23.60;67.30
66708;DHT22;53622;0.000;0.000;2023-04-29T11:52:48;23.50;67.10
66708;DHT22;53622;0.000;0.000;2023-04-29T11:55:18;23.50;66.60
66708;DHT22;53622;0.000;0.000;2023-04-29T11:57:48;23.40;66.30
66708;DHT22;53622;0.000;0.000;2023-04-29T12:00:19;23.50;66.70
66708;DHT22;53622;0.000;0.000;2023-04-29T12:02:50;23.40;67.00
66708;DHT22;53622;0.000;0.000;2023-04-29T12:05:19;23.40;66.70
66708;DHT22;53622;0.000;0.000;2023-04-29T12:07:49;23.40;67.30
66708;DHT22;53622;0.000;0.000;2023-04-29T12:10:19;23.40;66.50
66708;DHT22;53622;0.000;0.000;2023-04-29T12:12:48;23.40;66.40
66708;DHT22;53622;0.000;0.000;2023-04-29T12:15:18;23.40;66.60
66708;DHT22;53622;0.000;0.000;2023-04-29T12:17:47;23.50;66.20
66708;DHT22;53622;0.000;0.000;2023-04-29T12:20:20;23.40;66.70
66708;DHT22;53622;0.000;0.000;2023-04-29T12:22:49;23.40;67.00
66708;DHT22;53622;0.000;0.000;2023-04-29T12:25:18;23.50;66.60
66708;DHT22;53622;0.000;0.000;2023-04-29T12:27:58;23.50;65.90
66708;DHT22;53622;0.000;0.000;2023-04-29T12:30:27;23.60;66.10
66708;DHT22;53622;0.000;0.000;2023-04-29T12:32:57;23.50;65.40
66708;DHT22;53622;0.000;0.000;2023-04-29T12:35:28;23.60;65.60
66708;DHT22;53622;0.000;0.000;2023-04-29T12:37:58;23.50;65.40
66708;DHT22;53622;0.000;0.000;2023-04-29T12:40:28;23.60;66.50
66708;DHT22;53622;0.000;0.000;2023-04-29T12:43:06;23.60;65.30
66708;DHT22;53622;0.000;0.000;2023-04-29T12:45:38;23.60;65.20
66708;DHT22;53622;0.000;0.000;2023-04-29T12:48:08;23.60;64.80
66708;DHT22;53622;0.000;0.000;2023-04-29T12:50:57;23.60;64.80
66708;DHT22;53622;0.000;0.000;2023-04-29T12:53:29;23.60;64.90
66708;DHT22;53622;0.000;0.000;2023-04-29T12:55:59;23.60;64.70
66708;DHT22;53622;0.000;0.000;2023-04-29T12:58:29;23.60;64.60
66708;DHT22;53622;0.000;0.000;2023-04-29T13:01:00;23.60;64.50
66708;DHT22;53622;0.000;0.000;2023-04-29T13:03:30;23.60;64.50
66708;DHT22;53622;0.000;0.000;2023-04-29T13:06:03;23.60;64.50
66708;DHT22;53622;0.000;0.000;2023-04-29T13:08:33;23.60;64.40
66708;DHT22;53622;0.000;0.000;2023-04-29T13:11:03;23.60;64.50
66708;DHT22;53622;0.000;0.000;2023-04-29T13:13:34;23.60;64.50
66708;DHT22;53622;0.000;0.000;2023-04-29T13:16:05;23.60;64.40
66708;DHT22;53622;0.000;0.000;2023-04-29T13:18:34;23.70;64.80
66708;DHT22;53622;0.000;0.000;2023-04-29T13:21:07;23.70;64.90
66708;DHT22;53622;0.000;0.000;2023-04-29T13:23:36;23.70;64.40
66708;DHT22;53622;0.000;0.000;2023-04-29T13:26:05;23.70;64.40
66708;DHT22;53622;0.000;0.000;2023-04-29T13:28:35;23.70;64.20
66708;DHT22;53622;0.000;0.000;2023-04-29T13:31:04;23.70;64.30
66708;DHT22;53622;0.000;0.000;2023-04-29T13:33:34;23.70;64.30
66708;DHT22;53622;0.000;0.000;2023-04-29T13:36:08;23.70;64.10
66708;DHT22;53622;0.000;0.000;2023-04-29T13:38:38;23.60;64.00
66708;DHT22;53622;0.000;0.000;2023-04-29T13:41:07;23.60;64.00
66708;DHT22;53622;0.000;0.000;2023-04-29T13:43:43;23.70;64.50
66708;DHT22;53622;0.000;0.000;2023-04-29T13:46:17;23.70;64.20
66708;DHT22;53622;0.000;0.000;2023-04-29T13:48:47;23.70;63.80
66708;DHT22;53622;0.000;0.000;2023-04-29T13:51:38;23.70;64.10
66708;DHT22;53622;0.000;0.000;2023-04-29T13:54:10;23.70;63.90
66708;DHT22;53622;0.000;0.000;2023-04-29T13:56:42;23.70;64.00
66708;DHT22;53622;0.000;0.000;2023-04-29T13:59:15;23.60;64.10
66708;DHT22;53622;0.000;0.000;2023-04-29T14:01:47;23.70;64.20
66708;DHT22;53622;0.000;0.000;2023-04-29T14:04:20;23.80;63.80
66708;DHT22;53622;0.000;0.000;2023-04-29T14:06:51;23.70;63.90
66708;DHT22;53622;0.000;0.000;2023-04-29T14:09:21;23.70;63.70
66708;DHT22;53622;0.000;0.000;2023-04-29T14:11:50;23.70;63.70
66708;DHT22;53622;0.000;0.000;2023-04-29T14:14:20;23.70;63.90
66708;DHT22;53622;0.000;0.000;2023-04-29T14:16:50;23.70;63.80
66708;DHT22;53622;0.000;0.000;2023-04-29T14:19:19;23.70;63.90
66708;DHT22;53622;0.000;0.000;2023-04-29T14:21:48;23.60;64.10
66708;DHT22;53622;0.000;0.000;2023-04-29T14:24:20;23.60;64.20
66708;DHT22;53622;0.000;0.000;2023-04-29T14:26:50;23.60;64.50
66708;DHT22;53622;0.000;0.000;2023-04-29T14:29:20;23.60;64.00
66708;DHT22;53622;0.000;0.000;2023-04-29T14:31:49;23.70;63.90
66708;DHT22;53622;0.000;0.000;2023-04-29T14:34:18;23.70;63.80
66708;DHT22;53622;0.000;0.000;2023-04-29T14:36:48;23.80;63.60
66708;DHT22;53622;0.000;0.000;2023-04-29T14:39:17;23.70;63.60
66708;DHT22;53622;0.000;0.000;2023-04-29T14:41:47;23.70;63.60
66708;DHT22;53622;0.000;0.000;2023-04-29T14:44:17;23.70;63.50
66708;DHT22;53622;0.000;0.000;2023-04-29T14:46:46;23.70;63.40
66708;DHT22;53622;0.000;0.000;2023-04-29T14:49:15;23.70;63.60
66708;DHT22;53622;0.000;0.000;2023-04-29T14:51:44;23.70;63.70
66708;DHT22;53622;0.000;0.000;2023-04-29T14:54:14;23.70;63.60
66708;DHT22;53622;0.000;0.000;2023-04-29T14:56:43;23.70;63.80
66708;DHT22;53622;0.000;0.000;2023-04-29T14:59:14;23.70;63.80
66708;DHT22;53622;0.000;0.000;2023-04-29T15:01:45;23.70;63.80
66708;DHT22;53622;0.000;0.000;2023-04-29T15:04:15;23.70;64.20
66708;DHT22;53622;0.000;0.000;2023-04-29T15:06:44;23.70;63.70
66708;DHT22;53622;0.000;0.000;2023-04-29T15:09:14;23.80;63.50
66708;DHT22;53622;0.000;0.000;2023-04-29T15:11:43;23.80;63.20
66708;DHT22;53622;0.000;0.000;2023-04-29T15:14:14;23.80;63.30
66708;DHT22;53622;0.000;0.000;2023-04-29T15:16:43;23.80;63.40
66708;DHT22;53622;0.000;0.000;2023-04-29T15:19:13;23.80;63.30
66708;DHT22;53622;0.000;0.000;2023-04-29T15:21:43;23.80;63.00
66708;DHT22;53622;0.000;0.000;2023-04-29T15:24:12;23.80;62.90
66708;DHT22;53622;0.000;0.000;2023-04-29T15:26:41;23.80;63.90
66708;DHT22;53622;0.000;0.000;2023-04-29T15:29:11;23.80;63.60
66708;DHT22;53622;0.000;0.000;2023-04-29T15:31:42;23.90;63.20
66708;DHT22;53622;0.000;0.000;2023-04-29T15:34:11;23.80;63.90
66708;DHT22;53622;0.000;0.000;2023-04-29T15:36:41;23.80;63.70
66708;DHT22;53622;0.000;0.000;2023-04-29T15:39:10;23.80;63.60
66708;DHT22;53622;0.000;0.000;2023-04-29T15:41:39;23.90;63.80
66708;DHT22;53622;0.000;0.000;2023-04-29T15:44:08;23.90;64.20
66708;DHT22;53622;0.000;0.000;2023-04-29T15:46:38;23.90;63.80
66708;DHT22;53622;0.000;0.000;2023-04-29T15:49:09;23.90;63.40
66708;DHT22;53622;0.000;0.000;2023-04-29T15:51:39;23.90;63.00
66708;DHT22;53622;0.000;0.000;2023-04-29T15:54:08;23.80;63.90
66708;DHT22;53622;0.000;0.000;2023-04-29T15:56:38;23.80;63.90
66708;DHT22;53622;0.000;0.000;2023-04-29T15:59:08;23.90;63.40
66708;DHT22;53622;0.000;0.000;2023-04-29T16:01:37;23.90;63.40
66708;DHT22;53622;0.000;0.000;2023-04-29T16:04:08;23.90;63.90
66708;DHT22;53622;0.000;0.000;2023-04-29T16:06:37;24.00;64.10
66708;DHT22;53622;0.000;0.000;2023-04-29T16:09:07;23.90;64.10
66708;DHT22;53622;0.000;0.000;2023-04-29T16:11:38;23.90;64.40
66708;DHT22;53622;0.000;0.000;2023-04-29T16:14:08;23.90;64.50